sensor_id;sensor_type;location;lat;lon;timestamp;pressure;altitude;pressure_sealevel;temperature;humidity
12991;BME280;6560;57.692;11.958;2023-08-06T17:13:13;100411.53;;;28.45;100.00
12991;BME280;6560;57.692;11.958;2023-08-06T17:15:38;100428.72;;;33.10;100.00
12991;BME280;6560;57.692;11.958;2023-08-06T17:18:04;100435.88;;;30.23;100.00
12991;BME280;6560;57.692;11.958;2023-08-06T17:20:29;100394.25;;;32.11;100.00
12991;BME280;6560;57.692;11.958;2023-08-06T17:22:55;100401.19;;;31.18;100.00
12991;BME280;6560;57.692;11.958;2023-08-06T17:25:21;100418.94;;;32.56;96.91
12991;BME280;6560;57.692;11.958;2023-08-06T17:27:47;100406.22;;;31.49;100.00
12991;BME280;6560;57.692;11.958;2023-08-06T17:30:14;100394.53;;;33.73;89.36
12991;BME280;6560;57.692;11.958;2023-08-06T17:32:39;100398.72;;;28.89;100.00
12991;BME280;6560;57.692;11.958;2023-08-06T17:35:06;100362.66;;;28.62;100.00
12991;BME280;6560;57.692;11.958;2023-08-06T17:37:31;100404.09;;;29.06;100.00
12991;BME280;6560;57.692;11.958;2023-08-06T17:39:57;100305.44;;;32.86;93.76
12991;BME280;6560;57.692;11.958;2023-08-06T17:42:22;100319.28;;;33.16;88.29
12991;BME280;6560;57.692;11.958;2023-08-06T17:45:08;100352.38;;;33.04;88.12
12991;BME280;6560;57.692;11.958;2023-08-06T17:47:36;100307.03;;;33.70;80.30
12991;BME280;6560;57.692;11.958;2023-08-06T17:50:03;100303.53;;;33.65;88.33
12991;BME280;6560;57.692;11.958;2023-08-06T17:52:30;100332.59;;;32.93;85.29
12991;BME280;6560;57.692;11.958;2023-08-06T17:54:55;100336.63;;;34.25;80.82
12991;BME280;6560;57.692;11.958;2023-08-06T17:57:22;100347.56;;;34.25;80.21
12991;BME280;6560;57.692;11.958;2023-08-06T17:59:47;100338.50;;;34.54;76.30
12991;BME280;6560;57.692;11.958;2023-08-06T18:02:13;100316.13;;;33.73;75.63
12991;BME280;6560;57.692;11.958;2023-08-06T18:04:39;100382.22;;;33.90;79.50
12991;BME280;6560;57.692;11.958;2023-08-06T18:07:04;100369.28;;;34.31;75.85
12991;BME280;6560;57.692;11.958;2023-08-06T18:09:30;100361.50;;;34.14;76.71
12991;BME280;6560;57.692;11.958;2023-08-06T18:11:57;100318.63;;;33.45;77.46
12991;BME280;6560;57.692;11.958;2023-08-06T18:14:50;100350.88;;;34.02;74.56
12991;BME280;6560;57.692;11.958;2023-08-06T18:17:16;100331.19;;;34.54;72.58
12991;BME280;6560;57.692;11.958;2023-08-06T18:19:41;100301.97;;;34.55;71.41
12991;BME280;6560;57.692;11.958;2023-08-06T18:22:06;100270.03;;;34.54;73.13
12991;BME280;6560;57.692;11.958;2023-08-06T18:24:33;100334.50;;;35.26;70.87
12991;BME280;6560;57.692;11.958;2023-08-06T18:26:58;100331.44;;;33.42;75.72
12991;BME280;6560;57.692;11.958;2023-08-06T18:29:25;100331.59;;;33.36;75.81
12991;BME280;6560;57.692;11.958;2023-08-06T18:31:51;100273.16;;;33.77;75.99
12991;BME280;6560;57.692;11.958;2023-08-06T18:34:16;100329.22;;;34.90;72.09
12991;BME280;6560;57.692;11.958;2023-08-06T18:36:43;100321.09;;;33.91;79.40
12991;BME280;6560;57.692;11.958;2023-08-06T18:39:09;100254.00;;;33.04;85.99
12991;BME280;6560;57.692;11.958;2023-08-06T18:41:37;100254.00;;;34.42;77.44
12991;BME280;6560;57.692;11.958;2023-08-06T18:44:04;100248.03;;;35.68;80.82
12991;BME280;6560;57.692;11.958;2023-08-06T18:46:31;100284.69;;;33.54;84.93
12991;BME280;6560;57.692;11.958;2023-08-06T18:48:57;100236.88;;;33.69;92.10
12991;BME280;6560;57.692;11.958;2023-08-06T18:51:24;100258.84;;;34.61;89.52
12991;BME280;6560;57.692;11.958;2023-08-06T18:53:51;100258.91;;;33.62;97.88
12991;BME280;6560;57.692;11.958;2023-08-06T18:56:17;100248.53;;;33.04;97.86
12991;BME280;6560;57.692;11.958;2023-08-06T18:58:45;100255.28;;;32.90;92.92
12991;BME280;6560;57.692;11.958;2023-08-06T19:01:10;100249.63;;;34.65;83.50
12991;BME280;6560;57.692;11.958;2023-08-06T19:03:39;100253.19;;;32.19;94.43
12991;BME280;6560;57.692;11.958;2023-08-06T19:06:05;100174.31;;;32.49;92.04
12991;BME280;6560;57.692;11.958;2023-08-06T19:08:34;100210.69;;;31.61;94.46
12991;BME280;6560;57.692;11.958;2023-08-06T19:11:01;100234.25;;;32.93;87.80
12991;BME280;6560;57.692;11.958;2023-08-06T19:13:27;100185.03;;;33.32;87.00
12991;BME280;6560;57.692;11.958;2023-08-06T19:15:54;100228.03;;;32.47;89.52
12991;BME280;6560;57.692;11.958;2023-08-06T19:18:21;100190.63;;;31.64;93.80
12991;BME280;6560;57.692;11.958;2023-08-06T19:20:48;100195.56;;;31.42;96.24
12991;BME280;6560;57.692;11.958;2023-08-06T19:23:14;100170.84;;;31.51;95.22
12991;BME280;6560;57.692;11.958;2023-08-06T19:25:44;100166.28;;;31.53;95.34
12991;BME280;6560;57.692;11.958;2023-08-06T19:28:11;100200.78;;;31.56;97.76
12991;BME280;6560;57.692;11.958;2023-08-06T19:30:40;100202.09;;;32.66;92.26
12991;BME280;6560;57.692;11.958;2023-08-06T19:33:10;100193.16;;;32.19;98.19
12991;BME280;6560;57.692;11.958;2023-08-06T19:35:50;100196.81;;;31.74;99.26
12991;BME280;6560;57.692;11.958;2023-08-06T19:38:17;100177.03;;;32.49;97.32
12991;BME280;6560;57.692;11.958;2023-08-06T19:40:45;100163.19;;;33.30;90.46
12991;BME280;6560;57.692;11.958;2023-08-06T19:43:12;100096.66;;;32.23;94.56
12991;BME280;6560;57.692;11.958;2023-08-06T19:45:38;100112.00;;;31.87;93.22
12991;BME280;6560;57.692;11.958;2023-08-06T19:48:06;100116.06;;;34.73;83.78
12991;BME280;6560;57.692;11.958;2023-08-06T19:50:32;100118.38;;;34.30;83.91
12991;BME280;6560;57.692;11.958;2023-08-06T19:53:00;100098.47;;;32.97;88.97
12991;BME280;6560;57.692;11.958;2023-08-06T19:55:25;100092.84;;;31.46;91.88
12991;BME280;6560;57.692;11.958;2023-08-06T19:57:52;100112.47;;;31.64;94.43
12991;BME280;6560;57.692;11.958;2023-08-06T20:00:19;100120.06;;;31.47;96.59
12991;BME280;6560;57.692;11.958;2023-08-06T20:02:44;100126.06;;;31.67;95.32
12991;BME280;6560;57.692;11.958;2023-08-06T20:05:11;100133.22;;;31.72;94.02
12991;BME280;6560;57.692;11.958;2023-08-06T20:07:36;100133.16;;;31.76;93.96
12991;BME280;6560;57.692;11.958;2023-08-06T20:10:04;100094.81;;;31.38;93.79
12991;BME280;6560;57.692;11.958;2023-08-06T20:12:30;100073.81;;;33.01;88.78
12991;BME280;6560;57.692;11.958;2023-08-06T20:14:58;100094.19;;;32.88;85.16
12991;BME280;6560;57.692;11.958;2023-08-06T20:17:23;100055.16;;;32.48;85.90
12991;BME280;6560;57.692;11.958;2023-08-06T20:19:50;100054.19;;;31.25;88.09
12991;BME280;6560;57.692;11.958;2023-08-06T20:22:16;100034.44;;;31.14;93.72
12991;BME280;6560;57.692;11.958;2023-08-06T20:24:44;100039.81;;;32.42;87.39
12991;BME280;6560;57.692;11.958;2023-08-06T20:27:09;100046.78;;;31.34;90.55
12991;BME280;6560;57.692;11.958;2023-08-06T20:29:38;100043.63;;;32.72;86.21
12991;BME280;6560;57.692;11.958;2023-08-06T20:32:05;100041.09;;;32.63;82.49
12991;BME280;6560;57.692;11.958;2023-08-06T20:34:31;100073.13;;;33.27;80.51
12991;BME280;6560;57.692;11.958;2023-08-06T20:36:56;100027.03;;;34.05;80.81
12991;BME280;6560;57.692;11.958;2023-08-06T20:39:25;100076.00;;;35.47;73.90
12991;BME280;6560;57.692;11.958;2023-08-06T20:41:50;100051.44;;;34.66;73.18
12991;BME280;6560;57.692;11.958;2023-08-06T20:44:16;100063.06;;;34.74;72.89
12991;BME280;6560;57.692;11.958;2023-08-06T20:46:41;99993.34;;;35.58;69.80
12991;BME280;6560;57.692;11.958;2023-08-06T20:49:07;100043.16;;;33.22;73.89
12991;BME280;6560;57.692;11.958;2023-08-06T20:51:33;100026.34;;;32.36;78.66
12991;BME280;6560;57.692;11.958;2023-08-06T20:53:58;100028.81;;;29.58;91.92
12991;BME280;6560;57.692;11.958;2023-08-06T20:56:25;100041.22;;;29.79;95.68
12991;BME280;6560;57.692;11.958;2023-08-06T20:58:50;99962.16;;;31.41;89.38
12991;BME280;6560;57.692;11.958;2023-08-06T21:01:16;100017.47;;;31.45;87.08
12991;BME280;6560;57.692;11.958;2023-08-06T21:03:45;100038.25;;;30.55;92.74
12991;BME280;6560;57.692;11.958;2023-08-06T21:06:10;100012.72;;;30.62;92.18
12991;BME280;6560;57.692;11.958;2023-08-06T21:08:36;99986.31;;;30.15;95.35
12991;BME280;6560;57.692;11.958;2023-08-06T21:11:02;99948.19;;;29.60;98.96
12991;BME280;6560;57.692;11.958;2023-08-06T21:13:29;99941.66;;;29.04;100.00
12991;BME280;6560;57.692;11.958;2023-08-06T21:16:17;99968.50;;;29.94;100.00
12991;BME280;6560;57.692;11.958;2023-08-06T21:18:44;99958.97;;;30.75;95.47
12991;BME280;6560;57.692;11.958;2023-08-06T21:21:10;99957.53;;;30.54;94.93
12991;BME280;6560;57.692;11.958;2023-08-06T21:23:35;99935.25;;;30.32;98.63
12991;BME280;6560;57.692;11.958;2023-08-06T21:26:06;99932.88;;;31.11;92.26
12991;BME280;6560;57.692;11.958;2023-08-06T21:28:38;99958.03;;;32.02;87.22
12991;BME280;6560;57.692;11.958;2023-08-06T21:31:07;99894.06;;;30.54;89.68
12991;BME280;6560;57.692;11.958;2023-08-06T21:33:34;99931.31;;;30.50;92.38
12991;BME280;6560;57.692;11.958;2023-08-06T21:36:02;99927.16;;;30.28;94.23
12991;BME280;6560;57.692;11.958;2023-08-06T21:38:34;99944.00;;;30.48;98.81
12991;BME280;6560;57.692;11.958;2023-08-06T21:41:13;99943.84;;;29.47;100.00
12991;BME280;6560;57.692;11.958;2023-08-06T21:43:49;99937.19;;;29.67;100.00
12991;BME280;6560;57.692;11.958;2023-08-06T21:46:17;99922.00;;;28.84;100.00
12991;BME280;6560;57.692;11.958;2023-08-06T21:48:45;99900.94;;;28.23;100.00
12991;BME280;6560;57.692;11.958;2023-08-06T21:51:18;99885.56;;;28.27;100.00
12991;BME280;6560;57.692;11.958;2023-08-06T21:53:44;99828.94;;;27.93;100.00
12991;BME280;6560;57.692;11.958;2023-08-06T21:56:12;99855.00;;;28.06;100.00
12991;BME280;6560;57.692;11.958;2023-08-06T21:58:49;99846.03;;;28.00;100.00
12991;BME280;6560;57.692;11.958;2023-08-06T22:01:24;99855.31;;;29.30;100.00
12991;BME280;6560;57.692;11.958;2023-08-06T22:03:52;99791.00;;;29.36;100.00
12991;BME280;6560;57.692;11.958;2023-08-06T22:06:21;99843.13;;;28.98;100.00
12991;BME280;6560;57.692;11.958;2023-08-06T22:08:48;99807.06;;;28.11;100.00
12991;BME280;6560;57.692;11.958;2023-08-06T22:11:14;99831.91;;;28.54;100.00
12991;BME280;6560;57.692;11.958;2023-08-06T22:13:40;99822.00;;;27.57;100.00
12991;BME280;6560;57.692;11.958;2023-08-06T22:16:06;99822.81;;;28.60;100.00
12991;BME280;6560;57.692;11.958;2023-08-06T22:18:33;99751.03;;;28.13;100.00
12991;BME280;6560;57.692;11.958;2023-08-06T22:20:58;99729.16;;;28.30;100.00
12991;BME280;6560;57.692;11.958;2023-08-06T22:23:25;99733.72;;;28.28;100.00
12991;BME280;6560;57.692;11.958;2023-08-06T22:25:51;99813.56;;;27.95;100.00
12991;BME280;6560;57.692;11.958;2023-08-06T22:28:23;99773.31;;;28.40;100.00
12991;BME280;6560;57.692;11.958;2023-08-06T22:30:49;99754.44;;;27.41;100.00
12991;BME280;6560;57.692;11.958;2023-08-06T22:33:17;99786.75;;;27.65;100.00
12991;BME280;6560;57.692;11.958;2023-08-06T22:35:47;99727.34;;;28.29;100.00
12991;BME280;6560;57.692;11.958;2023-08-06T22:38:13;99771.75;;;28.22;100.00
12991;BME280;6560;57.692;11.958;2023-08-06T22:40:38;99748.03;;;28.39;100.00
12991;BME280;6560;57.692;11.958;2023-08-06T22:43:06;99771.69;;;28.24;100.00
12991;BME280;6560;57.692;11.958;2023-08-06T22:45:35;99748.25;;;28.21;100.00
12991;BME280;6560;57.692;11.958;2023-08-06T22:48:01;99751.13;;;28.04;100.00
12991;BME280;6560;57.692;11.958;2023-08-06T22:50:27;99742.50;;;27.67;100.00
12991;BME280;6560;57.692;11.958;2023-08-06T22:52:53;99733.47;;;27.67;100.00
12991;BME280;6560;57.692;11.958;2023-08-06T22:55:20;99744.81;;;28.77;100.00
12991;BME280;6560;57.692;11.958;2023-08-06T22:57:48;99730.69;;;28.49;100.00
12991;BME280;6560;57.692;11.958;2023-08-06T23:00:15;99733.03;;;28.80;100.00
12991;BME280;6560;57.692;11.958;2023-08-06T23:02:41;99714.84;;;28.85;100.00
12991;BME280;6560;57.692;11.958;2023-08-06T23:05:06;99716.16;;;29.15;100.00
12991;BME280;6560;57.692;11.958;2023-08-06T23:07:33;99697.00;;;29.25;100.00
12991;BME280;6560;57.692;11.958;2023-08-06T23:09:58;99628.66;;;27.73;100.00
12991;BME280;6560;57.692;11.958;2023-08-06T23:12:25;99677.94;;;28.03;100.00
12991;BME280;6560;57.692;11.958;2023-08-06T23:14:51;99700.66;;;28.65;100.00
12991;BME280;6560;57.692;11.958;2023-08-06T23:17:20;99678.22;;;28.53;100.00
12991;BME280;6560;57.692;11.958;2023-08-06T23:19:45;99668.59;;;28.92;100.00
12991;BME280;6560;57.692;11.958;2023-08-06T23:22:14;99627.63;;;28.51;100.00
12991;BME280;6560;57.692;11.958;2023-08-06T23:24:40;99626.63;;;28.58;100.00
12991;BME280;6560;57.692;11.958;2023-08-06T23:27:06;99655.50;;;29.19;100.00
12991;BME280;6560;57.692;11.958;2023-08-06T23:29:32;99667.44;;;29.59;100.00
12991;BME280;6560;57.692;11.958;2023-08-06T23:31:58;99644.97;;;29.51;100.00
12991;BME280;6560;57.692;11.958;2023-08-06T23:34:24;99653.66;;;29.68;100.00
12991;BME280;6560;57.692;11.958;2023-08-06T23:36:51;99625.03;;;29.52;100.00
12991;BME280;6560;57.692;11.958;2023-08-06T23:39:17;99647.41;;;30.89;100.00
12991;BME280;6560;57.692;11.958;2023-08-06T23:41:43;99612.59;;;29.39;100.00
12991;BME280;6560;57.692;11.958;2023-08-06T23:44:09;99626.94;;;28.95;100.00
12991;BME280;6560;57.692;11.958;2023-08-06T23:46:37;99592.78;;;30.20;100.00
12991;BME280;6560;57.692;11.958;2023-08-06T23:49:03;99600.44;;;29.09;100.00
12991;BME280;6560;57.692;11.958;2023-08-06T23:51:30;99563.31;;;31.13;100.00
12991;BME280;6560;57.692;11.958;2023-08-06T23:53:56;99582.16;;;30.11;100.00
12991;BME280;6560;57.692;11.958;2023-08-06T23:56:25;99580.91;;;30.64;100.00
12991;BME280;6560;57.692;11.958;2023-08-06T23:58:50;99558.22;;;31.65;100.00
